Time;durP1;ratioP1;P1;durP2;ratioP2;P2;SDS_P1;SDS_P2;PMS_P1;PMS_P2;Temp;Humidity;BMP_temperature;BMP_pressure;BME280_temperature;BME280_humidity;BME280_pressure;Samples;Min_cycle;Max_cycle;Signal;HPM_P1;HPM_P2
2023/03/22 00:03:02;;;;;;;22.15;8.95;;;;;;;;;;10512154;28;20032;-78
2023/03/22 00:08:23;;;;;;;13.45;8.52;;;;;;;;;;10507453;28;20043;-78
2023/03/22 00:13:45;;;;;;;20.13;9.32;;;;;;;;;;10520474;28;20036;-77
2023/03/22 00:19:06;;;;;;;14.13;7.55;;;;;;;;;;10516495;28;20039;-77
2023/03/22 00:24:27;;;;;;;18.98;8.27;;;;;;;;;;10516731;28;20463;-78
2023/03/22 00:29:50;;;;;;;16.63;8.95;;;;;;;;;;10519906;28;20032;-77
2023/03/22 00:35:11;;;;;;;20.42;9.57;;;;;;;;;;10505823;28;20036;-78
2023/03/22 00:40:32;;;;;;;17.00;8.52;;;;;;;;;;10514800;28;20032;-78
2023/03/22 00:45:53;;;;;;;19.48;9.27;;;;;;;;;;10504164;28;20405;-77
2023/03/22 00:51:14;;;;;;;26.90;10.98;;;;;;;;;;10509183;27;20043;-77
2023/03/22 00:56:37;;;;;;;27.70;11.18;;;;;;;;;;10488660;28;20047;-77
2023/03/22 01:01:57;;;;;;;21.65;9.57;;;;;;;;;;10501313;28;20082;-77
2023/03/22 01:07:20;;;;;;;36.10;12.77;;;;;;;;;;10492320;28;20028;-77
2023/03/22 01:12:41;;;;;;;21.40;10.55;;;;;;;;;;10483880;28;20138;-76
2023/03/22 01:18:02;;;;;;;27.02;10.18;;;;;;;;;;10488666;28;20040;-76
2023/03/22 01:23:23;;;;;;;24.50;10.13;;;;;;;;;;10513554;28;20059;-77
2023/03/22 01:28:44;;;;;;;16.52;8.90;;;;;;;;;;10518772;28;20035;-77
2023/03/22 01:34:04;;;;;;;21.27;10.23;;;;;;;;;;10519902;28;20043;-78
2023/03/22 01:39:26;;;;;;;24.38;10.98;;;;;;;;;;10513032;28;20162;-78
2023/03/22 01:45:22;;;;;;;28.25;11.98;;;;;;;;;;10510496;28;20040;-76
2023/03/22 01:50:47;;;;;;;29.70;13.75;;;;;;;;;;10411018;28;20051;-77
2023/03/22 01:56:09;;;;;;;23.30;11.63;;;;;;;;;;10499925;28;20412;-76
2023/03/22 02:01:30;;;;;;;32.28;12.65;;;;;;;;;;10519479;28;20061;-77
2023/03/22 02:06:53;;;;;;;24.30;13.13;;;;;;;;;;10518109;28;20036;-77
2023/03/22 02:12:24;;;;;;;26.27;12.65;;;;;;;;;;10528781;28;20021;-77
2023/03/22 02:17:45;;;;;;;26.42;13.15;;;;;;;;;;10513717;28;20039;-78
2023/03/22 02:23:08;;;;;;;26.67;14.43;;;;;;;;;;10511693;28;20039;-78
2023/03/22 02:28:29;;;;;;;31.73;15.60;;;;;;;;;;10503957;28;20043;-78
2023/03/22 02:33:53;;;;;;;37.55;17.92;;;;;;;;;;10507983;28;20054;-77
2023/03/22 02:39:25;;;;;;;31.77;15.43;;;;;;;;;;10491986;28;20045;-77
2023/03/22 02:44:58;;;;;;;36.53;15.88;;;;;;;;;;10489483;28;20044;-77
2023/03/22 02:50:21;;;;;;;31.95;14.48;;;;;;;;;;10500537;28;20283;-77
2023/03/22 02:55:45;;;;;;;27.58;13.43;;;;;;;;;;10510306;28;20055;-77
2023/03/22 03:01:08;;;;;;;38.85;16.42;;;;;;;;;;10497555;28;20468;-77
2023/03/22 03:06:37;;;;;;;25.20;12.20;;;;;;;;;;10522949;28;20394;-76
2023/03/22 03:11:58;;;;;;;22.17;13.23;;;;;;;;;;10533719;27;20047;-72
2023/03/22 03:17:22;;;;;;;25.20;12.75;;;;;;;;;;10517027;28;20055;-72
2023/03/22 03:23:01;;;;;;;18.50;11.35;;;;;;;;;;10540818;28;20481;-72
2023/03/22 03:28:28;;;;;;;20.88;11.68;;;;;;;;;;10548296;28;20397;-72
2023/03/22 03:33:52;;;;;;;21.27;11.77;;;;;;;;;;10535747;27;20116;-71
2023/03/22 03:39:14;;;;;;;29.38;12.80;;;;;;;;;;10522298;28;20274;-71
2023/03/22 03:44:37;;;;;;;37.67;13.63;;;;;;;;;;10490233;28;20417;-72
2023/03/22 03:49:58;;;;;;;26.90;11.82;;;;;;;;;;10487903;28;20039;-79
2023/03/22 03:55:19;;;;;;;36.63;13.88;;;;;;;;;;10493095;28;20048;-78
2023/03/22 04:00:41;;;;;;;36.20;12.85;;;;;;;;;;10496686;28;20048;-78
2023/03/22 04:06:02;;;;;;;24.02;11.20;;;;;;;;;;10499479;28;20028;-78
2023/03/22 04:11:23;;;;;;;26.42;11.63;;;;;;;;;;10480507;28;20365;-77
2023/03/22 04:16:44;;;;;;;19.58;9.57;;;;;;;;;;10503740;28;20028;-77
2023/03/22 04:22:05;;;;;;;22.00;10.18;;;;;;;;;;10509751;28;20043;-77
2023/03/22 04:27:26;;;;;;;18.00;9.52;;;;;;;;;;10515456;28;20036;-77
2023/03/22 04:32:47;;;;;;;26.13;10.57;;;;;;;;;;10515158;28;20055;-78
2023/03/22 04:38:08;;;;;;;16.48;8.68;;;;;;;;;;10509871;28;20063;-78
2023/03/22 04:43:33;;;;;;;23.52;10.25;;;;;;;;;;10517188;28;20509;-78
2023/03/22 04:48:54;;;;;;;20.55;10.27;;;;;;;;;;10485403;28;20143;-77
2023/03/22 04:54:15;;;;;;;24.33;10.05;;;;;;;;;;10498076;28;20040;-78
2023/03/22 04:59:36;;;;;;;21.20;10.07;;;;;;;;;;10490914;28;20058;-78
2023/03/22 05:04:57;;;;;;;21.20;9.18;;;;;;;;;;10498545;28;20040;-77
2023/03/22 05:10:18;;;;;;;23.17;9.18;;;;;;;;;;10518848;28;20054;-77
2023/03/22 05:15:40;;;;;;;17.58;8.88;;;;;;;;;;10515243;28;20032;-78
2023/03/22 05:21:02;;;;;;;18.55;9.27;;;;;;;;;;10523621;28;20032;-78
2023/03/22 05:26:25;;;;;;;13.15;7.63;;;;;;;;;;10507781;28;20039;-78
2023/03/22 05:31:45;;;;;;;21.92;9.55;;;;;;;;;;10538774;28;20088;-78
2023/03/22 05:37:06;;;;;;;16.10;8.65;;;;;;;;;;10533177;28;20062;-78
2023/03/22 05:42:27;;;;;;;21.58;9.77;;;;;;;;;;10497431;28;20492;-78
2023/03/22 05:47:49;;;;;;;23.83;9.73;;;;;;;;;;10529282;28;20043;-76
2023/03/22 05:53:10;;;;;;;20.88;9.27;;;;;;;;;;10497210;28;20056;-76
2023/03/22 05:58:32;;;;;;;27.55;10.82;;;;;;;;;;10463757;28;20124;-77
2023/03/22 06:03:53;;;;;;;22.17;8.98;;;;;;;;;;10473224;28;20397;-77
2023/03/22 06:09:14;;;;;;;18.70;8.25;;;;;;;;;;10495038;28;20568;-76
2023/03/22 06:14:35;;;;;;;18.45;9.02;;;;;;;;;;10492571;28;20032;-77
2023/03/22 06:19:56;;;;;;;24.42;9.45;;;;;;;;;;10478048;28;20444;-77
2023/03/22 06:25:17;;;;;;;25.50;9.90;;;;;;;;;;10478440;28;20846;-77
2023/03/22 06:30:38;;;;;;;29.38;10.43;;;;;;;;;;10473520;28;20067;-77
2023/03/22 06:36:00;;;;;;;13.95;7.30;;;;;;;;;;10480478;28;20028;-77
2023/03/22 06:41:21;;;;;;;17.83;7.85;;;;;;;;;;10496475;28;20044;-77
2023/03/22 06:46:42;;;;;;;19.52;8.70;;;;;;;;;;10502272;28;20028;-77
2023/03/22 06:52:03;;;;;;;18.85;8.13;;;;;;;;;;10505549;28;20047;-76
2023/03/22 06:57:24;;;;;;;14.93;7.43;;;;;;;;;;10503477;28;20041;-77
2023/03/22 07:02:45;;;;;;;20.13;7.85;;;;;;;;;;10496384;28;20021;-76
2023/03/22 07:08:06;;;;;;;17.38;7.93;;;;;;;;;;10493962;28;20038;-79
2023/03/22 07:13:27;;;;;;;24.13;9.60;;;;;;;;;;10484748;28;20024;-79
2023/03/22 07:18:48;;;;;;;15.60;8.63;;;;;;;;;;10492763;28;20503;-79
2023/03/22 07:24:10;;;;;;;23.48;10.07;;;;;;;;;;10481371;28;20067;-80
2023/03/22 07:29:31;;;;;;;21.77;8.85;;;;;;;;;;10483132;28;20047;-79
2023/03/22 07:34:52;;;;;;;19.85;8.57;;;;;;;;;;10477228;28;20058;-80
2023/03/22 07:40:14;;;;;;;12.65;7.22;;;;;;;;;;10479727;28;20490;-79
2023/03/22 07:45:35;;;;;;;13.55;7.28;;;;;;;;;;10469654;28;20032;-80
2023/03/22 07:50:56;;;;;;;20.15;9.05;;;;;;;;;;10466136;28;20441;-78
2023/03/22 07:56:17;;;;;;;14.40;7.53;;;;;;;;;;10522215;27;20032;-78
2023/03/22 08:01:38;;;;;;;11.38;7.35;;;;;;;;;;10539308;28;20032;-78
2023/03/22 08:06:59;;;;;;;16.55;8.45;;;;;;;;;;10551311;27;20028;-78
2023/03/22 08:12:20;;;;;;;21.73;9.52;;;;;;;;;;10513329;28;20032;-77
2023/03/22 08:17:41;;;;;;;20.73;8.18;;;;;;;;;;10533238;28;20032;-78
2023/03/22 08:23:02;;;;;;;15.85;7.45;;;;;;;;;;10534667;28;20031;-78
2023/03/22 08:28:23;;;;;;;11.88;7.38;;;;;;;;;;10526030;28;20039;-80
2023/03/22 08:33:44;;;;;;;50.10;13.45;;;;;;;;;;10542243;27;20036;-77
2023/03/22 08:39:05;;;;;;;13.02;6.15;;;;;;;;;;10534404;28;20570;-78
2023/03/22 08:44:26;;;;;;;15.07;6.88;;;;;;;;;;10517900;28;20047;-78
2023/03/22 08:49:47;;;;;;;16.20;6.20;;;;;;;;;;10534736;28;20039;-78
2023/03/22 08:55:08;;;;;;;12.73;6.07;;;;;;;;;;10536614;28;20424;-78
2023/03/22 09:00:29;;;;;;;18.48;6.65;;;;;;;;;;10515824;28;20036;-78
2023/03/22 09:05:50;;;;;;;17.02;6.90;;;;;;;;;;10519348;28;20031;-77
2023/03/22 09:11:11;;;;;;;10.68;6.20;;;;;;;;;;10518218;28;20499;-78
2023/03/22 09:16:32;;;;;;;11.57;6.38;;;;;;;;;;10537769;28;20081;-78
2023/03/22 09:21:53;;;;;;;15.38;6.35;;;;;;;;;;10535755;28;20032;-78
2023/03/22 09:27:14;;;;;;;12.15;5.93;;;;;;;;;;10521509;28;20387;-79
2023/03/22 09:32:35;;;;;;;12.18;5.55;;;;;;;;;;10553665;28;20503;-77
2023/03/22 09:37:57;;;;;;;19.40;6.25;;;;;;;;;;10523992;28;20043;-78
2023/03/22 09:43:19;;;;;;;15.60;5.90;;;;;;;;;;10543385;28;20051;-78
2023/03/22 09:48:41;;;;;;;13.48;5.78;;;;;;;;;;10539197;28;20504;-78
2023/03/22 09:54:02;;;;;;;13.55;6.10;;;;;;;;;;10520726;28;20048;-78
2023/03/22 09:59:34;;;;;;;14.00;5.93;;;;;;;;;;10497840;28;20401;-78
2023/03/22 10:04:55;;;;;;;14.35;6.43;;;;;;;;;;10488109;28;20124;-78
2023/03/22 10:10:18;;;;;;;14.18;6.10;;;;;;;;;;10515422;28;20044;-79
2023/03/22 10:15:39;;;;;;;12.00;6.63;;;;;;;;;;10460586;28;20101;-79
2023/03/22 10:21:19;;;;;;;14.38;5.75;;;;;;;;;;10514836;28;20031;-79
2023/03/22 10:26:43;;;;;;;11.88;6.00;;;;;;;;;;10497521;28;20383;-78
2023/03/22 10:32:10;;;;;;;19.50;6.38;;;;;;;;;;10471648;28;20040;-78
2023/03/22 10:37:33;;;;;;;12.95;6.13;;;;;;;;;;10473625;28;20032;-79
2023/03/22 10:43:27;;;;;;;13.23;5.68;;;;;;;;;;10478391;28;20040;-78
2023/03/22 10:48:50;;;;;;;16.58;6.68;;;;;;;;;;10435540;28;20041;-79
2023/03/22 10:54:15;;;;;;;14.50;6.28;;;;;;;;;;10496053;28;20501;-79
2023/03/22 10:59:50;;;;;;;16.42;6.55;;;;;;;;;;10526399;28;20048;-79
2023/03/22 11:05:18;;;;;;;13.27;5.85;;;;;;;;;;10502537;28;20037;-80
2023/03/22 11:10:39;;;;;;;19.33;7.75;;;;;;;;;;10486675;28;20048;-78
2023/03/22 11:16:01;;;;;;;14.55;6.90;;;;;;;;;;10507790;28;20047;-77
2023/03/22 11:21:24;;;;;;;18.58;8.18;;;;;;;;;;10500011;28;20032;-77
2023/03/22 11:27:00;;;;;;;12.70;6.75;;;;;;;;;;10484432;28;20084;-77
2023/03/22 11:32:35;;;;;;;15.02;6.78;;;;;;;;;;10494323;28;20032;-78
2023/03/22 11:37:56;;;;;;;19.40;7.78;;;;;;;;;;10495050;28;20397;-77
2023/03/22 11:43:22;;;;;;;16.25;7.13;;;;;;;;;;10503520;28;20040;-76
2023/03/22 11:48:44;;;;;;;20.33;7.40;;;;;;;;;;10484231;28;20047;-78
2023/03/22 11:54:24;;;;;;;9.88;5.55;;;;;;;;;;10509646;28;20048;-78
2023/03/22 12:00:07;;;;;;;10.32;5.43;;;;;;;;;;10542758;28;20428;-78
2023/03/22 12:05:32;;;;;;;13.25;6.63;;;;;;;;;;10540056;28;20036;-78
2023/03/22 12:11:06;;;;;;;11.35;6.40;;;;;;;;;;10530105;28;20047;-78
2023/03/22 12:16:30;;;;;;;9.30;5.75;;;;;;;;;;10532189;28;20036;-77
2023/03/22 12:21:51;;;;;;;11.10;5.93;;;;;;;;;;10522880;28;20032;-78
2023/03/22 12:27:12;;;;;;;12.48;5.65;;;;;;;;;;10532150;28;20028;-77
2023/03/22 12:32:35;;;;;;;9.07;6.28;;;;;;;;;;10519505;28;20048;-77
2023/03/22 12:37:58;;;;;;;13.95;6.22;;;;;;;;;;10531635;28;20028;-77
2023/03/22 12:43:21;;;;;;;11.70;5.95;;;;;;;;;;10540301;28;20028;-77
2023/03/22 12:48:47;;;;;;;17.48;7.10;;;;;;;;;;10506617;28;20024;-77
2023/03/22 12:54:11;;;;;;;17.10;7.63;;;;;;;;;;10533215;28;20423;-77
2023/03/22 12:59:32;;;;;;;14.65;7.28;;;;;;;;;;10531918;28;20515;-77
2023/03/22 13:04:54;;;;;;;10.98;6.40;;;;;;;;;;10510959;28;20047;-78
2023/03/22 13:10:31;;;;;;;17.85;7.05;;;;;;;;;;10529693;28;20035;-78
2023/03/22 13:15:57;;;;;;;22.48;8.30;;;;;;;;;;10515567;28;20032;-78
2023/03/22 13:21:22;;;;;;;9.38;5.22;;;;;;;;;;10508281;28;20054;-78
2023/03/22 13:26:53;;;;;;;16.17;7.13;;;;;;;;;;10511996;28;20028;-73
2023/03/22 13:32:28;;;;;;;7.47;4.80;;;;;;;;;;10509143;28;20046;-74
2023/03/22 13:37:50;;;;;;;7.53;5.75;;;;;;;;;;10527180;28;20461;-73
2023/03/22 13:43:11;;;;;;;10.98;5.60;;;;;;;;;;10507213;28;20036;-73
2023/03/22 13:48:41;;;;;;;21.15;8.40;;;;;;;;;;10533898;28;20044;-72
2023/03/22 13:54:11;;;;;;;12.02;6.45;;;;;;;;;;10513231;28;20051;-73
2023/03/22 13:59:55;;;;;;;16.88;6.70;;;;;;;;;;10515163;28;20036;-72
2023/03/22 14:05:17;;;;;;;16.88;7.25;;;;;;;;;;10518508;28;20039;-73
2023/03/22 14:10:38;;;;;;;12.18;6.40;;;;;;;;;;10502806;28;20401;-73
2023/03/22 14:16:11;;;;;;;16.98;6.97;;;;;;;;;;10513773;28;20503;-72
2023/03/22 14:21:33;;;;;;;15.30;6.60;;;;;;;;;;10524425;28;20036;-72
2023/03/22 14:26:55;;;;;;;16.42;6.60;;;;;;;;;;10528796;28;20036;-72
2023/03/22 14:32:28;;;;;;;14.20;6.90;;;;;;;;;;10535187;28;20498;-73
2023/03/22 14:37:49;;;;;;;17.10;7.05;;;;;;;;;;10518371;28;20056;-73
2023/03/22 14:43:15;;;;;;;15.13;6.40;;;;;;;;;;10525694;28;20036;-73
2023/03/22 14:48:37;;;;;;;17.23;7.43;;;;;;;;;;10532438;28;20051;-73
2023/03/22 14:54:02;;;;;;;10.63;5.85;;;;;;;;;;10516771;28;20048;-71
2023/03/22 14:59:22;;;;;;;9.38;6.38;;;;;;;;;;10468827;28;20052;-72
2023/03/22 15:04:44;;;;;;;10.70;6.60;;;;;;;;;;10500565;28;20032;-74
2023/03/22 15:10:17;;;;;;;16.77;7.95;;;;;;;;;;10511476;28;20048;-73
2023/03/22 15:15:39;;;;;;;16.73;8.02;;;;;;;;;;10484713;28;20039;-73
2023/03/22 15:21:02;;;;;;;13.35;7.35;;;;;;;;;;10499553;28;20040;-73
2023/03/22 15:26:27;;;;;;;10.35;6.97;;;;;;;;;;10496956;28;20096;-72
2023/03/22 15:31:48;;;;;;;19.55;9.07;;;;;;;;;;10497348;28;20032;-73
2023/03/22 15:37:11;;;;;;;21.42;9.43;;;;;;;;;;10489404;28;20032;-74
2023/03/22 15:42:36;;;;;;;23.55;9.13;;;;;;;;;;10476062;28;20040;-74
2023/03/22 15:48:28;;;;;;;23.45;10.15;;;;;;;;;;10467576;28;20055;-74
2023/03/22 15:53:49;;;;;;;19.67;10.80;;;;;;;;;;10518212;28;20654;-75
2023/03/22 15:59:24;;;;;;;51.63;16.73;;;;;;;;;;10518629;28;20028;-75
2023/03/22 16:04:48;;;;;;;22.38;11.63;;;;;;;;;;10524331;28;20047;-75
2023/03/22 16:10:13;;;;;;;21.98;10.48;;;;;;;;;;10530184;28;20413;-75
2023/03/22 16:15:34;;;;;;;22.92;12.15;;;;;;;;;;10521992;28;20031;-75
2023/03/22 16:20:55;;;;;;;30.38;13.82;;;;;;;;;;10523429;28;20397;-75
2023/03/22 16:26:16;;;;;;;21.33;10.90;;;;;;;;;;10541400;28;20539;-77
2023/03/22 16:31:37;;;;;;;29.95;12.88;;;;;;;;;;10529422;28;20055;-78
2023/03/22 16:36:58;;;;;;;25.73;12.25;;;;;;;;;;10540086;27;20032;-78
2023/03/22 16:42:20;;;;;;;33.58;14.15;;;;;;;;;;10519261;28;20120;-78
2023/03/22 16:47:41;;;;;;;35.80;14.55;;;;;;;;;;10502670;28;20028;-78
2023/03/22 16:53:02;;;;;;;25.63;12.55;;;;;;;;;;10508481;28;20078;-77
2023/03/22 16:58:23;;;;;;;29.40;14.10;;;;;;;;;;10493926;27;20405;-78
2023/03/22 17:03:45;;;;;;;26.92;13.63;;;;;;;;;;10469911;28;20036;-78
2023/03/22 17:09:06;;;;;;;27.35;11.48;;;;;;;;;;10480584;28;20033;-78
2023/03/22 17:14:26;;;;;;;31.70;12.65;;;;;;;;;;10474678;28;20035;-78
2023/03/22 17:19:48;;;;;;;27.67;14.48;;;;;;;;;;10472749;28;20040;-79
2023/03/22 17:25:12;;;;;;;24.55;12.38;;;;;;;;;;10518227;27;20036;-79
2023/03/22 17:30:33;;;;;;;21.85;11.82;;;;;;;;;;10490997;28;20040;-79
2023/03/22 17:35:54;;;;;;;27.08;13.27;;;;;;;;;;10477905;28;20029;-79
2023/03/22 17:41:17;;;;;;;16.08;9.98;;;;;;;;;;10479734;28;20040;-79
2023/03/22 17:46:38;;;;;;;18.85;11.82;;;;;;;;;;10490839;28;20464;-79
2023/03/22 17:51:59;;;;;;;17.55;11.25;;;;;;;;;;10492999;28;20066;-79
2023/03/22 17:57:20;;;;;;;19.05;10.68;;;;;;;;;;10492345;28;20898;-79
2023/03/22 18:02:41;;;;;;;17.33;10.45;;;;;;;;;;10484373;28;20041;-78
2023/03/22 18:08:03;;;;;;;16.05;9.55;;;;;;;;;;10491346;28;20032;-78
2023/03/22 18:13:24;;;;;;;15.65;10.20;;;;;;;;;;10473991;28;20043;-79
2023/03/22 18:18:46;;;;;;;13.80;10.20;;;;;;;;;;10473458;28;20489;-79
2023/03/22 18:24:07;;;;;;;16.17;8.75;;;;;;;;;;10485627;28;20045;-78
2023/03/22 18:29:28;;;;;;;16.10;9.80;;;;;;;;;;10479178;28;20036;-78
2023/03/22 18:34:49;;;;;;;19.80;9.85;;;;;;;;;;10493346;28;20031;-78
2023/03/22 18:40:11;;;;;;;16.20;9.80;;;;;;;;;;10520098;28;20024;-78
2023/03/22 18:45:33;;;;;;;19.55;9.15;;;;;;;;;;10488027;28;20447;-76
2023/03/22 18:50:54;;;;;;;13.90;9.38;;;;;;;;;;10486616;28;20055;-76
2023/03/22 18:56:15;;;;;;;24.92;11.00;;;;;;;;;;10506530;28;20122;-77
2023/03/22 19:01:36;;;;;;;14.93;8.95;;;;;;;;;;10483058;28;20033;-75
2023/03/22 19:06:59;;;;;;;16.30;10.15;;;;;;;;;;10474504;28;20043;-75
2023/03/22 19:12:20;;;;;;;15.15;9.43;;;;;;;;;;10480201;28;20589;-76
2023/03/22 19:17:41;;;;;;;21.10;11.57;;;;;;;;;;10494639;28;20039;-75
2023/03/22 19:23:02;;;;;;;22.60;14.27;;;;;;;;;;10464720;28;20044;-75
2023/03/22 19:28:23;;;;;;;24.95;11.93;;;;;;;;;;10484812;28;20494;-75
2023/03/22 19:33:44;;;;;;;23.15;11.85;;;;;;;;;;10476524;28;20035;-72
2023/03/22 19:39:05;;;;;;;36.15;14.40;;;;;;;;;;10471914;28;20040;-76
2023/03/22 19:44:26;;;;;;;27.70;12.63;;;;;;;;;;10464463;28;20040;-74
2023/03/22 19:49:47;;;;;;;20.40;10.65;;;;;;;;;;10465588;28;20055;-76
2023/03/22 19:55:08;;;;;;;24.40;10.75;;;;;;;;;;10486187;28;20489;-78
2023/03/22 20:00:29;;;;;;;21.58;11.25;;;;;;;;;;10478593;28;20051;-75
2023/03/22 20:05:50;;;;;;;24.02;10.57;;;;;;;;;;10475690;28;20032;-75
2023/03/22 20:11:11;;;;;;;28.52;12.73;;;;;;;;;;10496118;28;20560;-76
2023/03/22 20:16:35;;;;;;;24.55;13.27;;;;;;;;;;10476277;28;20028;-75
2023/03/22 20:21:55;;;;;;;26.92;13.05;;;;;;;;;;10479461;28;20044;-75
2023/03/22 20:27:16;;;;;;;30.80;13.32;;;;;;;;;;10466587;28;20064;-75
2023/03/22 20:32:37;;;;;;;30.55;13.43;;;;;;;;;;10467644;28;20416;-76
2023/03/22 20:37:58;;;;;;;29.15;12.55;;;;;;;;;;10469423;28;20032;-76
2023/03/22 20:43:19;;;;;;;25.10;13.13;;;;;;;;;;10467575;28;20409;-76
2023/03/22 20:48:41;;;;;;;22.55;13.55;;;;;;;;;;10488134;28;20035;-75
2023/03/22 20:54:03;;;;;;;18.58;10.98;;;;;;;;;;10481509;28;20045;-75
2023/03/22 20:59:23;;;;;;;18.55;10.60;;;;;;;;;;10489488;28;20040;-75
2023/03/22 21:04:44;;;;;;;26.65;11.68;;;;;;;;;;10479237;28;20040;-75
2023/03/22 21:10:07;;;;;;;21.30;12.27;;;;;;;;;;10458982;28;20497;-76
2023/03/22 21:15:28;;;;;;;16.65;11.18;;;;;;;;;;10474134;28;20041;-75
2023/03/22 21:20:51;;;;;;;18.38;9.82;;;;;;;;;;10497439;28;20036;-76
2023/03/22 21:26:12;;;;;;;27.48;12.68;;;;;;;;;;10462474;28;20040;-75
2023/03/22 21:31:33;;;;;;;17.33;10.50;;;;;;;;;;10469098;28;20036;-76
2023/03/22 21:36:56;;;;;;;31.80;12.18;;;;;;;;;;10435470;28;20036;-76
2023/03/22 21:42:17;;;;;;;27.95;12.30;;;;;;;;;;10459870;28;20044;-75
2023/03/22 21:47:42;;;;;;;28.08;12.70;;;;;;;;;;10445292;28;20047;-76
2023/03/22 21:53:03;;;;;;;21.45;10.40;;;;;;;;;;10462899;28;20051;-75
2023/03/22 21:58:24;;;;;;;25.08;11.60;;;;;;;;;;10499859;28;20032;-76
2023/03/22 22:03:45;;;;;;;25.83;11.40;;;;;;;;;;10525088;28;20400;-76
2023/03/22 22:09:06;;;;;;;15.63;9.07;;;;;;;;;;10530721;28;20111;-76
2023/03/22 22:14:27;;;;;;;15.05;8.43;;;;;;;;;;10541408;28;20055;-77
2023/03/22 22:19:47;;;;;;;15.98;9.48;;;;;;;;;;10532671;28;20519;-75
2023/03/22 22:25:10;;;;;;;15.50;8.18;;;;;;;;;;10543462;28;20039;-77
2023/03/22 22:30:31;;;;;;;14.10;8.55;;;;;;;;;;10545765;28;20039;-77
2023/03/22 22:35:51;;;;;;;14.05;8.80;;;;;;;;;;10554799;27;20028;-77
2023/03/22 22:41:14;;;;;;;20.65;9.32;;;;;;;;;;10505951;28;20062;-78
2023/03/22 22:46:35;;;;;;;12.98;7.95;;;;;;;;;;10539467;28;20043;-77
2023/03/22 22:51:56;;;;;;;23.20;10.00;;;;;;;;;;10519550;28;20078;-76
2023/03/22 22:57:17;;;;;;;17.92;8.52;;;;;;;;;;10478014;28;20045;-76
2023/03/22 23:02:39;;;;;;;15.63;8.88;;;;;;;;;;10493761;28;20055;-76
2023/03/22 23:08:01;;;;;;;18.40;9.05;;;;;;;;;;10498787;28;20049;-76
2023/03/22 23:13:22;;;;;;;11.90;7.63;;;;;;;;;;10500487;28;20133;-76
2023/03/22 23:18:46;;;;;;;11.40;7.18;;;;;;;;;;10501035;28;20044;-76
2023/03/22 23:24:08;;;;;;;14.13;7.32;;;;;;;;;;10502561;28;20102;-76
2023/03/22 23:29:29;;;;;;;14.73;7.55;;;;;;;;;;10501302;28;20040;-77
2023/03/22 23:34:50;;;;;;;28.83;10.88;;;;;;;;;;10514694;28;20049;-75
2023/03/22 23:40:11;;;;;;;14.10;8.02;;;;;;;;;;10485464;28;20521;-76
2023/03/22 23:45:32;;;;;;;17.77;8.35;;;;;;;;;;10476026;28;20052;-75
2023/03/22 23:50:56;;;;;;;21.90;8.98;;;;;;;;;;10485528;28;20048;-76
2023/03/22 23:56:19;;;;;;;17.75;8.32;;;;;;;;;;10511000;28;20059;-76
